Time;durP1;ratioP1;P1;durP2;ratioP2;P2;SDS_P1;SDS_P2;PMS_P1;PMS_P2;Temp;Humidity;BMP_temperature;BMP_pressure;BME280_temperature;BME280_humidity;BME280_pressure;Samples;Min_cycle;Max_cycle;Signal;HPM_P1;HPM_P2
2024/01/14 00:02:05;;;;;;;58.60;26.15;;;;;;;-3.41;88.98;100209.03;5090651;28;20028;-78
2024/01/14 00:04:30;;;;;;;57.25;25.70;;;;;;;-3.79;90.15;100184.28;5091280;28;20036;-77
2024/01/14 00:06:56;;;;;;;56.78;24.50;;;;;;;-3.72;91.19;100206.31;5072521;28;20450;-77
2024/01/14 00:09:21;;;;;;;49.60;23.67;;;;;;;-3.55;89.87;100193.69;5071847;28;20036;-78
2024/01/14 00:11:48;;;;;;;45.50;22.27;;;;;;;-3.47;90.11;100219.97;5090669;28;20058;-77
2024/01/14 00:14:14;;;;;;;42.30;20.95;;;;;;;-3.90;91.91;100179.94;5069981;28;20048;-77
2024/01/14 00:16:41;;;;;;;53.83;26.77;;;;;;;-3.44;91.98;100204.06;5071525;28;20032;-77
2024/01/14 00:19:09;;;;;;;44.75;22.73;;;;;;;-3.09;89.93;100208.97;5055043;28;20032;-78
2024/01/14 00:21:35;;;;;;;47.17;23.20;;;;;;;-3.23;89.90;100217.09;5070990;28;20544;-77
2024/01/14 00:24:02;;;;;;;49.35;24.38;;;;;;;-3.24;89.86;100198.03;5071146;28;20063;-77
2024/01/14 00:26:28;;;;;;;45.65;22.90;;;;;;;-3.23;89.87;100217.09;5070139;28;20033;-77
2024/01/14 00:28:55;;;;;;;45.30;22.25;;;;;;;-3.23;89.16;100193.63;5082669;28;20056;-77
2024/01/14 00:31:21;;;;;;;44.92;22.38;;;;;;;-3.04;88.25;100212.03;5090660;28;20080;-77
2024/01/14 00:33:49;;;;;;;69.57;34.00;;;;;;;-3.00;87.20;100175.22;5090174;28;20028;-77
2024/01/14 00:36:14;;;;;;;168.27;76.55;;;;;;;-2.77;86.44;100207.25;5073270;28;20032;-76
2024/01/14 00:38:40;;;;;;;60.63;28.70;;;;;;;-2.68;85.89;100214.28;5054970;28;20044;-78
2024/01/14 00:41:05;;;;;;;58.13;26.23;;;;;;;-2.79;86.37;100207.38;5070926;28;20071;-77
2024/01/14 00:43:31;;;;;;;96.05;45.47;;;;;;;-2.74;86.86;100204.38;5070817;28;20099;-77
2024/01/14 00:45:56;;;;;;;63.42;31.65;;;;;;;-2.53;86.53;100213.00;5052827;28;20119;-77
2024/01/14 00:48:22;;;;;;;61.08;27.85;;;;;;;-2.62;85.52;100205.94;5076831;28;20028;-77
2024/01/14 00:50:47;;;;;;;98.72;44.40;;;;;;;-2.91;87.14;100190.94;5090574;28;20032;-76
2024/01/14 00:53:12;;;;;;;44.42;22.63;;;;;;;-3.28;89.05;100201.84;5072004;28;20074;-77
2024/01/14 00:55:38;;;;;;;60.67;30.00;;;;;;;-3.13;89.66;100204.13;5072132;28;20032;-77
2024/01/14 00:58:03;;;;;;;45.38;22.65;;;;;;;-3.36;90.01;100180.78;5070232;28;20063;-78
2024/01/14 01:00:29;;;;;;;53.40;30.23;;;;;;;-3.01;90.31;100195.28;5089825;28;20032;-77
2024/01/14 01:02:54;;;;;;;45.58;24.05;;;;;;;-2.86;88.00;100167.91;5090103;28;20032;-77
2024/01/14 01:05:20;;;;;;;44.70;22.33;;;;;;;-2.99;89.05;100198.59;5071669;28;20024;-77
2024/01/14 01:07:45;;;;;;;52.05;28.08;;;;;;;-2.76;87.88;100188.00;5071621;28;20420;-77
2024/01/14 01:10:11;;;;;;;47.38;23.33;;;;;;;-3.42;89.08;100125.72;5069611;28;20099;-77
2024/01/14 01:12:37;;;;;;;43.03;22.27;;;;;;;-3.35;89.66;100156.38;5051632;28;20058;-77
2024/01/14 01:15:05;;;;;;;46.03;22.77;;;;;;;-3.06;88.80;100174.00;5069603;28;20048;-76
2024/01/14 01:17:31;;;;;;;51.03;23.23;;;;;;;-2.84;87.75;100166.00;5069821;28;20021;-77
2024/01/14 01:19:56;;;;;;;46.50;23.02;;;;;;;-3.28;88.52;100122.78;5085739;28;20461;-77
2024/01/14 01:22:21;;;;;;;48.80;23.88;;;;;;;-3.44;90.07;100136.25;5090212;28;20073;-77
2024/01/14 01:24:47;;;;;;;51.45;23.40;;;;;;;-3.59;90.76;100121.91;5089769;28;20035;-78
2024/01/14 01:27:12;;;;;;;47.70;22.90;;;;;;;-3.42;90.63;100154.38;5070333;28;20031;-78
2024/01/14 01:29:38;;;;;;;48.33;24.48;;;;;;;-3.04;88.52;100148.59;5072320;28;20032;-78
2024/01/14 01:32:03;;;;;;;45.15;23.88;;;;;;;-2.92;86.93;100167.59;5069668;28;20039;-78
2024/01/14 01:34:29;;;;;;;57.33;28.10;;;;;;;-2.91;86.41;100151.00;5070206;28;20024;-78
2024/01/14 01:36:54;;;;;;;77.55;33.58;;;;;;;-2.84;85.77;100145.13;5087517;28;20024;-77
2024/01/14 01:39:20;;;;;;;61.15;26.60;;;;;;;-2.83;84.58;100138.94;5080368;28;20456;-78
2024/01/14 01:41:45;;;;;;;63.58;27.83;;;;;;;-2.75;84.64;100158.34;5052933;28;20123;-77
2024/01/14 01:44:11;;;;;;;64.43;29.08;;;;;;;-2.94;84.55;100138.19;5078106;28;20042;-77
2024/01/14 01:46:36;;;;;;;55.35;25.00;;;;;;;-2.87;84.92;100155.81;5093342;28;20032;-77
2024/01/14 01:49:03;;;;;;;48.08;23.90;;;;;;;-3.05;85.65;100136.50;5077432;28;20055;-78
2024/01/14 01:51:30;;;;;;;53.35;23.67;;;;;;;-3.10;85.02;100112.59;5080528;28;20082;-77
2024/01/14 01:53:56;;;;;;;49.55;23.27;;;;;;;-3.11;85.24;100122.19;5080655;28;20027;-78
2024/01/14 01:56:23;;;;;;;47.15;23.92;;;;;;;-3.20;85.68;100111.72;5089232;28;20028;-77
2024/01/14 01:58:49;;;;;;;56.13;25.73;;;;;;;-3.38;85.83;100108.84;5079158;28;20113;-77
2024/01/14 02:01:15;;;;;;;62.65;28.27;;;;;;;-3.79;89.12;100103.50;5077647;28;20029;-77
2024/01/14 02:03:41;;;;;;;57.92;27.20;;;;;;;-3.27;87.48;100127.88;5076971;28;20032;-77
2024/01/14 02:06:09;;;;;;;56.83;24.17;;;;;;;-3.20;85.78;100089.06;5075864;28;20017;-78
2024/01/14 02:08:36;;;;;;;44.00;20.52;;;;;;;-3.46;86.31;100065.97;5058694;28;20040;-77
2024/01/14 02:11:01;;;;;;;42.20;20.77;;;;;;;-3.26;85.92;100085.19;5075414;28;20035;-77
2024/01/14 02:13:27;;;;;;;35.50;18.65;;;;;;;-3.52;85.50;100053.47;5074766;28;20036;-77
2024/01/14 02:15:52;;;;;;;43.30;19.85;;;;;;;-3.16;85.02;100087.84;5073318;28;20528;-77
2024/01/14 02:18:18;;;;;;;38.95;19.65;;;;;;;-3.42;86.31;100077.00;5054227;28;20115;-77
2024/01/14 02:20:43;;;;;;;35.80;18.58;;;;;;;-3.44;87.22;100084.13;5056801;28;20067;-77
2024/01/14 02:23:11;;;;;;;36.38;18.00;;;;;;;-3.80;88.00;100062.78;5069961;28;20405;-77
2024/01/14 02:25:37;;;;;;;;;;;;;;;-3.40;87.71;100100.34;5055093;28;20554;-78
2024/01/14 02:28:03;;;;;;;32.17;15.55;;;;;;;-3.77;88.28;100074.72;5073003;28;19995;-77
2024/01/14 02:30:29;;;;;;;37.92;18.35;;;;;;;-3.99;88.14;100080.84;5069683;28;20439;-77
2024/01/14 02:32:55;;;;;;;63.45;26.02;;;;;;;-3.93;87.57;100103.78;5074815;28;20432;-77
2024/01/14 02:35:20;;;;;;;55.92;27.02;;;;;;;-4.28;89.01;100099.66;5074494;28;20028;-77
2024/01/14 02:37:47;;;;;;;67.65;29.45;;;;;;;-4.64;89.48;100072.97;5075251;28;20078;-77
2024/01/14 02:40:13;;;;;;;54.55;24.50;;;;;;;-4.87;90.43;100101.59;5075582;28;20040;-78
2024/01/14 02:42:40;;;;;;;56.10;26.23;;;;;;;-4.75;88.39;100078.19;5054597;28;20028;-77
2024/01/14 02:45:08;;;;;;;51.10;22.27;;;;;;;-4.80;86.81;100083.78;5054647;28;20485;-77
2024/01/14 02:47:33;;;;;;;40.45;20.85;;;;;;;-5.02;87.41;100068.19;5054238;28;20033;-77
2024/01/14 02:49:58;;;;;;;47.22;22.25;;;;;;;-4.94;87.48;100058.81;5079655;28;20172;-78
2024/01/14 02:52:24;;;;;;;52.72;22.23;;;;;;;-4.82;86.50;100046.66;5073970;28;20040;-77
2024/01/14 02:54:49;;;;;;;58.28;25.30;;;;;;;-4.69;88.36;100091.56;5074855;28;20030;-78
2024/01/14 02:57:14;;;;;;;47.35;22.98;;;;;;;-4.47;88.98;100085.50;5080538;28;20032;-77
2024/01/14 02:59:40;;;;;;;51.03;21.67;;;;;;;-4.24;88.75;100091.47;5074301;28;20060;-77
2024/01/14 03:02:05;;;;;;;48.10;23.60;;;;;;;-4.35;87.16;100021.22;5071491;28;20042;-77
2024/01/14 03:04:31;;;;;;;48.63;23.30;;;;;;;-4.22;87.92;100057.50;5053816;28;20039;-78
2024/01/14 03:06:56;;;;;;;54.42;25.38;;;;;;;-4.42;90.21;100076.47;5053617;28;20127;-77
2024/01/14 03:09:22;;;;;;;45.75;21.05;;;;;;;-3.92;88.67;100095.03;5054060;28;20127;-77
2024/01/14 03:11:47;;;;;;;36.35;19.23;;;;;;;-4.57;89.52;100042.91;5074013;28;20428;-78
2024/01/14 03:14:12;;;;;;;42.20;19.92;;;;;;;-4.03;88.46;100077.66;5091644;28;20044;-77
2024/01/14 03:16:38;;;;;;;35.35;17.60;;;;;;;-4.02;87.09;100068.91;5091563;28;20034;-78
2024/01/14 03:19:03;;;;;;;44.70;20.50;;;;;;;-4.70;90.94;100060.44;5091910;28;20031;-77
2024/01/14 03:21:29;;;;;;;38.55;20.20;;;;;;;-4.69;90.91;100085.53;5089885;28;20090;-77
2024/01/14 03:23:54;;;;;;;60.95;27.83;;;;;;;-5.16;90.71;100012.03;5091485;28;20028;-77
2024/01/14 03:26:20;;;;;;;60.00;27.85;;;;;;;-4.40;88.28;100085.00;5091110;28;20810;-77
2024/01/14 03:28:45;;;;;;;47.10;24.00;;;;;;;-4.53;87.88;100043.50;5053879;28;20037;-77
2024/01/14 03:31:17;;;;;;;42.80;21.48;;;;;;;-4.37;87.24;100043.94;5074556;28;20592;-78
2024/01/14 03:33:43;;;;;;;40.47;19.73;;;;;;;-4.38;87.36;100046.66;5071322;28;20390;-80
2024/01/14 03:36:12;;;;;;;42.55;20.42;;;;;;;-4.20;87.42;100060.78;5071409;28;20031;-77
2024/01/14 03:38:38;;;;;;;39.05;18.88;;;;;;;-4.25;86.25;100062.94;5071606;28;20036;-77
2024/01/14 03:41:03;;;;;;;38.70;19.40;;;;;;;-4.37;85.91;100043.94;5082339;28;20512;-77
2024/01/14 03:43:29;;;;;;;40.95;18.88;;;;;;;-4.44;87.50;100054.00;5091888;28;20032;-78
2024/01/14 03:45:54;;;;;;;42.38;20.70;;;;;;;-4.47;88.45;100054.25;5091354;28;20439;-77
2024/01/14 03:48:19;;;;;;;61.22;27.70;;;;;;;-4.58;87.96;100036.03;5091782;28;20028;-77
2024/01/14 03:50:45;;;;;;;44.40;22.45;;;;;;;-4.48;87.52;100049.97;5081111;28;20024;-77
2024/01/14 03:53:11;;;;;;;47.08;25.30;;;;;;;-4.85;87.40;100049.47;5081136;28;20381;-77
2024/01/14 03:55:38;;;;;;;68.22;39.25;;;;;;;-5.17;88.36;100044.16;5081722;28;20024;-77
2024/01/14 03:58:05;;;;;;;62.63;38.85;;;;;;;-5.25;89.91;100058.59;5066376;28;20404;-77
2024/01/14 04:00:30;;;;;;;74.25;47.13;;;;;;;-5.16;89.56;100038.84;5080227;28;20114;-76
2024/01/14 04:02:56;;;;;;;45.40;26.30;;;;;;;-5.16;90.45;100067.44;5082623;28;20108;-78
2024/01/14 04:05:22;;;;;;;45.00;23.13;;;;;;;-5.58;91.68;100019.56;5062335;28;20411;-76
2024/01/14 04:07:49;;;;;;;37.50;18.20;;;;;;;-5.31;90.38;100053.88;5065347;28;20545;-77
2024/01/14 04:10:15;;;;;;;42.38;19.98;;;;;;;-5.47;91.10;100053.38;5077260;28;20040;-77
2024/01/14 04:12:41;;;;;;;35.75;17.88;;;;;;;-5.41;90.68;100078.91;5082867;28;20119;-78
2024/01/14 04:15:07;;;;;;;42.72;23.33;;;;;;;-5.45;91.36;100067.09;5080939;28;20127;-77
2024/01/14 04:17:32;;;;;;;63.08;32.55;;;;;;;-5.39;92.10;100061.41;5082626;28;20115;-77
2024/01/14 04:19:59;;;;;;;41.20;23.08;;;;;;;-5.10;90.05;100074.78;5079164;28;20028;-77
2024/01/14 04:22:24;;;;;;;146.43;56.83;;;;;;;-5.39;91.52;100050.16;5082009;28;20702;-78
2024/01/14 04:24:50;;;;;;;86.85;39.05;;;;;;;-5.50;91.91;100053.59;5085970;28;20028;-78
2024/01/14 04:27:15;;;;;;;34.35;18.23;;;;;;;-5.78;91.99;100050.47;5081185;28;20031;-78
2024/01/14 04:29:41;;;;;;;37.50;18.27;;;;;;;-5.44;91.62;100073.91;5079600;28;20514;-77
2024/01/14 04:32:06;;;;;;;36.53;18.85;;;;;;;-5.30;89.54;100039.91;5064135;28;20032;-78
2024/01/14 04:34:32;;;;;;;46.75;23.63;;;;;;;-5.07;88.62;100051.16;5060853;28;20111;-77
2024/01/14 04:36:58;;;;;;;41.70;19.45;;;;;;;-5.93;90.08;100021.25;5081516;28;20443;-78
2024/01/14 04:39:24;;;;;;;38.45;19.27;;;;;;;-5.89;91.17;100058.22;5066538;28;20040;-78
2024/01/14 04:41:49;;;;;;;41.78;20.42;;;;;;;-5.54;88.72;100034.78;5063161;28;20028;-78
2024/01/14 04:44:15;;;;;;;43.65;22.83;;;;;;;-5.04;86.31;100037.09;5060372;28;20150;-77
2024/01/14 04:46:44;;;;;;;41.00;20.77;;;;;;;-5.17;85.85;100059.75;5060373;28;20028;-78
2024/01/14 04:49:10;;;;;;;38.25;18.10;;;;;;;-5.22;86.76;100056.69;5084423;28;20436;-78
2024/01/14 04:51:35;;;;;;;49.10;23.02;;;;;;;-5.59;88.28;100067.28;5081362;28;20442;-78
2024/01/14 04:54:02;;;;;;;59.60;26.50;;;;;;;-5.21;87.37;100058.34;5070438;28;20036;-78
2024/01/14 04:56:28;;;;;;;91.97;40.38;;;;;;;-4.92;86.52;100080.34;5055538;28;20029;-78
2024/01/14 04:58:53;;;;;;;74.45;37.70;;;;;;;-5.10;86.66;100072.19;5062791;28;20043;-78
2024/01/14 05:01:18;;;;;;;63.47;29.38;;;;;;;-5.21;87.44;100074.78;5060306;28;20168;-78
2024/01/14 05:03:44;;;;;;;51.15;25.63;;;;;;;-5.51;89.17;100072.75;5084023;28;20031;-77
2024/01/14 05:06:10;;;;;;;46.45;22.80;;;;;;;-5.67;89.01;100078.25;5090178;28;20016;-77
2024/01/14 05:08:37;;;;;;;42.42;21.40;;;;;;;-5.80;94.57;100054.97;5089989;28;20090;-78
2024/01/14 05:11:03;;;;;;;53.53;26.70;;;;;;;-3.69;98.23;100056.66;5088419;28;20424;-78
2024/01/14 05:13:29;;;;;;;61.08;28.75;;;;;;;-3.67;90.40;100068.59;5070754;28;20044;-78
2024/01/14 05:15:54;;;;;;;66.15;28.88;;;;;;;-3.76;88.11;100085.00;5071413;28;20373;-78
2024/01/14 05:18:19;;;;;;;107.72;49.95;;;;;;;-4.31;82.75;100068.63;5083897;28;20497;-78
2024/01/14 05:20:45;;;;;;;64.68;31.48;;;;;;;-4.93;84.66;100073.47;5051693;28;20032;-78
2024/01/14 05:23:10;;;;;;;67.88;29.95;;;;;;;-4.82;85.47;100064.00;5087146;28;20558;-78
2024/01/14 05:25:36;;;;;;;45.25;21.88;;;;;;;-4.81;86.74;100063.06;5066147;28;20060;-78
2024/01/14 05:28:01;;;;;;;34.50;17.60;;;;;;;-5.20;89.37;100018.41;5070571;28;20479;-78
2024/01/14 05:30:26;;;;;;;42.17;19.42;;;;;;;-5.43;91.27;100036.59;5089680;28;20030;-78
2024/01/14 05:32:52;;;;;;;40.08;17.98;;;;;;;-5.17;89.54;100019.00;5075730;28;20040;-77
2024/01/14 05:35:17;;;;;;;47.83;23.95;;;;;;;-4.93;88.70;100063.06;5069107;28;20432;-78
2024/01/14 05:37:43;;;;;;;43.08;19.65;;;;;;;-5.37;90.56;100046.53;5069317;28;20131;-78
2024/01/14 05:40:09;;;;;;;46.40;20.48;;;;;;;-5.54;91.72;100055.59;5061719;28;20051;-78
2024/01/14 05:42:34;;;;;;;57.22;26.88;;;;;;;-6.01;91.71;100028.00;5061480;28;20024;-78
2024/01/14 05:45:00;;;;;;;79.22;34.88;;;;;;;-5.89;92.36;100045.25;5068726;28;20081;-78
2024/01/14 05:47:25;;;;;;;87.05;33.65;;;;;;;-5.99;92.15;100041.69;5069197;28;20578;-78
2024/01/14 05:49:50;;;;;;;97.55;34.03;;;;;;;-5.43;89.84;100041.81;5068316;28;20029;-78
2024/01/14 05:52:16;;;;;;;69.32;31.35;;;;;;;-5.37;89.10;100020.53;5058194;28;20566;-78
2024/01/14 05:54:44;;;;;;;63.60;28.40;;;;;;;-5.36;91.13;100024.78;5089009;28;20024;-78
2024/01/14 05:57:10;;;;;;;54.33;26.70;;;;;;;-5.03;90.65;100024.91;5089150;28;20031;-79
2024/01/14 05:59:35;;;;;;;45.40;21.42;;;;;;;-5.06;90.70;100031.16;5070102;28;20118;-78
2024/01/14 06:02:01;;;;;;;56.20;25.17;;;;;;;-4.77;88.95;100041.06;5087785;28;20031;-78
2024/01/14 06:04:26;;;;;;;54.65;24.20;;;;;;;-4.97;87.79;100001.81;5088678;28;20480;-78
2024/01/14 06:06:51;;;;;;;61.53;25.95;;;;;;;-5.17;89.27;100000.81;5070137;28;20028;-77
2024/01/14 06:09:17;;;;;;;47.90;23.90;;;;;;;-4.73;89.19;100035.50;5080083;28;20107;-78
2024/01/14 06:11:42;;;;;;;52.67;23.75;;;;;;;-4.57;87.62;100006.47;5069721;28;20612;-79
2024/01/14 06:14:08;;;;;;;75.13;33.55;;;;;;;-4.43;87.24;100031.41;5088665;28;20056;-78
2024/01/14 06:16:37;;;;;;;83.35;33.50;;;;;;;-4.35;86.80;100035.97;5088823;28;20392;-78
2024/01/14 06:19:03;;;;;;;77.97;37.20;;;;;;;-4.62;87.05;100013.81;5083288;28;20111;-78
2024/01/14 06:21:28;;;;;;;79.82;35.20;;;;;;;-4.42;87.20;100032.22;5050968;28;20115;-77
2024/01/14 06:23:54;;;;;;;100.25;40.30;;;;;;;-4.24;86.69;100059.38;5068312;28;20158;-78
2024/01/14 06:26:19;;;;;;;102.50;41.03;;;;;;;-4.34;87.23;100016.81;5070461;28;20031;-78
2024/01/14 06:28:45;;;;;;;71.18;31.25;;;;;;;-4.45;87.04;99984.69;5086302;28;20103;-77
2024/01/14 06:31:11;;;;;;;63.70;26.85;;;;;;;-4.02;86.30;100022.00;5068625;28;20029;-78
2024/01/14 06:33:36;;;;;;;58.50;29.23;;;;;;;-3.98;87.47;100015.59;5065165;28;20043;-78
2024/01/14 06:36:06;;;;;;;58.75;33.40;;;;;;;-3.78;87.29;100041.78;5088674;28;20093;-78
2024/01/14 06:38:34;;;;;;;47.42;23.95;;;;;;;-3.76;87.24;100037.25;5088910;28;20024;-77
2024/01/14 06:41:00;;;;;;;53.03;24.92;;;;;;;-3.58;86.66;100019.28;5050779;28;20501;-78
2024/01/14 06:43:26;;;;;;;38.90;19.75;;;;;;;-3.57;86.67;100031.38;5070806;28;20039;-77
2024/01/14 06:45:51;;;;;;;53.42;26.55;;;;;;;-3.81;88.16;100015.97;5067908;28;20028;-77
2024/01/14 06:48:17;;;;;;;50.55;25.55;;;;;;;-3.07;100.00;100039.28;5068253;28;20039;-77
2024/01/14 06:50:42;;;;;;;51.13;25.38;;;;;;;-0.40;86.72;100048.13;5068520;28;20034;-78
2024/01/14 06:53:08;;;;;;;52.92;27.02;;;;;;;1.80;76.94;100052.22;5076944;28;20075;-78
2024/01/14 06:55:33;;;;;;;56.97;28.63;;;;;;;3.43;69.36;100066.06;5070410;28;20058;-78
2024/01/14 06:57:59;;;;;;;51.03;28.02;;;;;;;2.42;64.66;100084.13;5088449;28;20646;-78
2024/01/14 07:00:25;;;;;;;54.25;28.60;;;;;;;3.47;66.76;100082.38;5075378;28;20033;-78
2024/01/14 07:02:50;;;;;;;57.53;29.35;;;;;;;1.51;66.93;100074.50;5053275;28;20044;-78
2024/01/14 07:05:15;;;;;;;57.13;29.73;;;;;;;2.98;66.01;100060.50;5068570;28;20481;-78
2024/01/14 07:07:41;;;;;;;67.60;33.95;;;;;;;2.11;66.57;100060.28;5049819;28;20040;-78
2024/01/14 07:10:07;;;;;;;89.65;40.33;;;;;;;3.65;67.34;100061.03;5068274;28;20068;-78
2024/01/14 07:12:33;;;;;;;109.13;50.65;;;;;;;3.56;64.05;100076.91;5075650;28;20047;-78
2024/01/14 07:14:59;;;;;;;66.63;38.45;;;;;;;3.77;59.42;100063.09;5082627;28;20489;-78
2024/01/14 07:17:24;;;;;;;57.90;31.35;;;;;;;2.95;63.21;100070.56;5079152;28;20097;-79
2024/01/14 07:19:50;;;;;;;56.50;30.73;;;;;;;3.07;63.97;100049.94;5058931;28;20396;-79
2024/01/14 07:22:15;;;;;;;53.72;30.25;;;;;;;3.14;62.26;100051.69;5091645;28;20443;-79
2024/01/14 07:24:40;;;;;;;68.18;36.90;;;;;;;3.59;65.26;100066.00;5084160;28;20082;-78
2024/01/14 07:27:06;;;;;;;69.63;37.67;;;;;;;3.83;63.47;100066.84;5071412;28;20489;-78
2024/01/14 07:29:31;;;;;;;71.38;45.47;;;;;;;2.93;66.71;100048.81;5071786;28;20116;-78
2024/01/14 07:31:57;;;;;;;51.25;26.80;;;;;;;3.60;65.76;100056.28;5071439;28;20878;-79
2024/01/14 07:34:22;;;;;;;55.60;30.30;;;;;;;4.11;62.51;100045.22;5074787;28;20063;-78
2024/01/14 07:36:48;;;;;;;119.65;56.80;;;;;;;3.31;62.65;100054.28;5053169;28;20032;-78
2024/01/14 07:39:14;;;;;;;65.18;34.63;;;;;;;3.52;62.83;100046.59;5053059;28;20029;-78
2024/01/14 07:41:40;;;;;;;58.05;36.20;;;;;;;3.15;59.17;100058.63;5071404;28;20032;-78
2024/01/14 07:44:05;;;;;;;42.85;25.63;;;;;;;1.66;64.80;100039.69;5082517;28;20036;-78
2024/01/14 07:46:31;;;;;;;39.42;23.05;;;;;;;0.85;68.88;100041.03;5090873;28;20481;-79
2024/01/14 07:48:57;;;;;;;33.30;18.77;;;;;;;0.68;67.13;100014.72;5072840;28;20031;-78
2024/01/14 07:51:22;;;;;;;33.28;17.67;;;;;;;0.68;69.22;100040.97;5057131;28;20083;-77
2024/01/14 07:53:47;;;;;;;35.15;18.48;;;;;;;0.03;72.46;100024.78;5073682;28;20111;-77
2024/01/14 07:56:13;;;;;;;33.85;18.02;;;;;;;0.56;70.99;100031.69;5052913;28;20035;-78
2024/01/14 07:58:38;;;;;;;35.72;19.05;;;;;;;0.38;71.09;100018.63;5071445;28;20047;-77
2024/01/14 08:01:05;;;;;;;38.88;21.83;;;;;;;0.65;66.64;100043.06;5064401;28;20031;-77
2024/01/14 08:03:30;;;;;;;29.38;15.48;;;;;;;0.11;66.81;100011.72;5087489;28;20028;-77
2024/01/14 08:05:56;;;;;;;36.35;18.20;;;;;;;0.43;67.94;100026.03;5071581;28;20039;-77
2024/01/14 08:08:21;;;;;;;34.75;18.30;;;;;;;0.48;68.70;100011.47;5070233;28;20036;-77
2024/01/14 08:10:48;;;;;;;33.72;17.92;;;;;;;0.33;70.81;100000.72;5071097;28;20028;-77
2024/01/14 08:13:14;;;;;;;32.10;17.60;;;;;;;0.74;70.16;100029.84;5071526;28;20175;-77
2024/01/14 08:15:39;;;;;;;37.20;18.88;;;;;;;0.83;67.94;100022.81;5090588;28;20166;-77
2024/01/14 08:18:05;;;;;;;43.95;25.48;;;;;;;0.86;69.48;100022.53;5090808;28;20479;-77
2024/01/14 08:20:32;;;;;;;31.63;17.30;;;;;;;1.09;67.20;100032.47;5085509;28;20525;-77
2024/01/14 08:22:57;;;;;;;26.48;15.48;;;;;;;1.38;66.27;100017.13;5060218;28;20027;-79
2024/01/14 08:25:23;;;;;;;29.80;17.50;;;;;;;1.31;67.71;100010.03;5079394;28;20021;-77
2024/01/14 08:27:55;;;;;;;29.17;16.80;;;;;;;1.70;66.23;99998.97;5080488;28;20085;-78
2024/01/14 08:30:20;;;;;;;33.75;16.13;;;;;;;1.91;64.14;100012.44;5060615;28;20024;-77
2024/01/14 08:32:46;;;;;;;38.55;23.83;;;;;;;1.57;64.82;100007.28;5063245;28;20102;-78
2024/01/14 08:35:11;;;;;;;31.63;16.45;;;;;;;1.64;64.35;100020.63;5077889;28;20043;-78
2024/01/14 08:37:37;;;;;;;63.20;38.15;;;;;;;2.32;76.83;100009.78;5070259;28;20036;-77
2024/01/14 08:40:03;;;;;;;41.75;23.42;;;;;;;3.54;74.51;99988.41;5070232;28;20016;-78
2024/01/14 08:42:29;;;;;;;37.67;20.23;;;;;;;3.69;61.85;100014.84;5089933;28;20020;-78
2024/01/14 08:44:54;;;;;;;53.30;33.63;;;;;;;4.38;70.34;99986.56;5089091;28;20052;-77
2024/01/14 08:47:19;;;;;;;119.80;73.57;;;;;;;4.94;66.30;100003.78;5090099;28;20077;-77
2024/01/14 08:49:45;;;;;;;66.53;44.78;;;;;;;5.68;70.60;100002.78;5090253;28;20028;-76
2024/01/14 08:52:11;;;;;;;34.92;19.58;;;;;;;5.40;64.73;100008.81;5073653;28;20170;-77
2024/01/14 08:54:37;;;;;;;41.90;26.70;;;;;;;4.45;59.61;100002.50;5078365;28;20059;-77
2024/01/14 08:57:02;;;;;;;32.50;19.35;;;;;;;3.53;59.75;99987.56;5071563;28;20078;-77
2024/01/14 08:59:27;;;;;;;33.83;19.83;;;;;;;3.50;64.37;99987.13;5071381;28;20127;-77
2024/01/14 09:01:53;;;;;;;32.67;18.38;;;;;;;3.82;64.09;99991.34;5059104;28;20119;-77
2024/01/14 09:04:19;;;;;;;29.10;15.68;;;;;;;3.32;62.02;99990.03;5074262;28;20042;-76
2024/01/14 09:06:45;;;;;;;29.13;15.60;;;;;;;2.85;61.69;99972.47;5089214;28;20046;-77
2024/01/14 09:09:11;;;;;;;30.17;17.45;;;;;;;2.95;64.16;99978.34;5089609;28;20024;-76
2024/01/14 09:11:36;;;;;;;27.83;14.88;;;;;;;3.08;61.41;99973.34;5080286;28;20035;-76
2024/01/14 09:14:02;;;;;;;29.35;14.50;;;;;;;3.15;62.37;99978.75;5070297;28;20044;-77
2024/01/14 09:16:27;;;;;;;26.17;15.15;;;;;;;2.81;59.10;99962.25;5089244;28;20137;-77
2024/01/14 09:18:53;;;;;;;31.23;16.67;;;;;;;3.15;61.15;99969.03;5089341;28;20028;-77
2024/01/14 09:21:18;;;;;;;42.75;27.38;;;;;;;2.73;60.79;99935.97;5065507;28;20032;-77
2024/01/14 09:23:45;;;;;;;28.60;17.23;;;;;;;2.90;58.60;99939.38;5068724;28;20051;-76
2024/01/14 09:26:11;;;;;;;40.90;30.45;;;;;;;2.53;61.27;99908.41;5069645;28;20039;-77
2024/01/14 09:28:36;;;;;;;164.50;72.28;;;;;;;2.94;60.50;99924.84;5088390;28;20517;-78
2024/01/14 09:31:02;;;;;;;34.20;21.40;;;;;;;3.16;60.34;99930.31;5088269;28;20653;-76
2024/01/14 09:33:28;;;;;;;46.60;35.63;;;;;;;3.34;59.62;99935.31;5069786;28;20544;-77
2024/01/14 09:35:55;;;;;;;32.00;17.20;;;;;;;3.16;59.59;99902.16;5087392;28;20119;-76
2024/01/14 09:38:21;;;;;;;27.38;15.43;;;;;;;3.25;56.85;99921.38;5070932;28;20063;-76
2024/01/14 09:40:56;;;;;;;31.90;16.90;;;;;;;3.05;58.17;99918.38;5088581;28;20472;-76
2024/01/14 09:43:25;;;;;;;27.48;15.48;;;;;;;3.11;58.39;99912.41;5078914;28;20446;-77
2024/01/14 09:45:51;;;;;;;30.48;16.08;;;;;;;3.43;58.73;99905.25;5086051;28;20058;-76
2024/01/14 09:48:18;;;;;;;26.05;15.77;;;;;;;3.98;56.83;99912.06;5087906;28;20032;-76
2024/01/14 09:50:44;;;;;;;44.53;30.02;;;;;;;4.24;55.66;99931.94;5088522;28;20039;-76
2024/01/14 09:53:14;;;;;;;29.55;16.02;;;;;;;4.57;53.77;99921.00;5088302;28;20031;-76
2024/01/14 09:55:40;;;;;;;32.78;19.80;;;;;;;4.27;55.81;99931.56;5068558;28;20085;-77
2024/01/14 09:58:06;;;;;;;39.70;30.40;;;;;;;4.66;55.29;99924.34;5088668;28;20024;-76
2024/01/14 10:00:36;;;;;;;31.27;19.00;;;;;;;5.14;54.14;99891.19;5088131;28;20510;-76
2024/01/14 10:03:02;;;;;;;84.43;38.90;;;;;;;5.43;51.92;99900.00;5055012;28;20455;-76
2024/01/14 10:05:28;;;;;;;31.20;16.55;;;;;;;4.78;56.32;99885.91;5076314;28;20085;-76
2024/01/14 10:07:53;;;;;;;28.58;15.25;;;;;;;4.18;56.53;99882.50;5088650;28;20047;-76
2024/01/14 10:10:19;;;;;;;29.52;15.80;;;;;;;4.39;56.57;99877.31;5088351;28;20487;-76
2024/01/14 10:12:44;;;;;;;28.52;16.20;;;;;;;4.72;56.13;99861.06;5058465;28;20067;-75
2024/01/14 10:15:11;;;;;;;27.60;16.02;;;;;;;4.60;55.07;99870.47;5073931;28;20047;-76
2024/01/14 10:17:37;;;;;;;28.08;16.13;;;;;;;4.12;55.80;99870.03;5088212;28;20036;-76
2024/01/14 10:20:02;;;;;;;27.65;16.27;;;;;;;4.71;55.90;99859.41;5070368;28;20462;-76
2024/01/14 10:22:28;;;;;;;25.27;15.20;;;;;;;4.83;53.26;99868.50;5087925;28;20056;-76
2024/01/14 10:24:55;;;;;;;28.42;16.70;;;;;;;5.49;53.14;99840.25;5087709;28;20167;-76
2024/01/14 10:27:22;;;;;;;36.88;18.23;;;;;;;6.25;52.19;99843.00;5088141;28;20031;-79
2024/01/14 10:29:49;;;;;;;31.95;18.33;;;;;;;6.62;48.79;99817.13;5087024;28;20020;-75
2024/01/14 10:32:15;;;;;;;28.48;16.35;;;;;;;6.94;50.66;99830.63;5069504;28;20026;-75
2024/01/14 10:34:41;;;;;;;27.73;16.10;;;;;;;6.74;49.49;99820.81;5086532;28;20020;-76
2024/01/14 10:37:07;;;;;;;27.55;16.52;;;;;;;7.58;92.21;99797.41;5083205;28;20115;-76
2024/01/14 10:39:33;;;;;;;26.98;14.68;;;;;;;8.23;48.02;99832.00;5079079;28;20032;-76
2024/01/14 10:41:59;;;;;;;28.00;16.85;;;;;;;8.09;46.41;99836.56;5069570;28;20089;-76
2024/01/14 10:44:25;;;;;;;27.55;16.05;;;;;;;6.88;47.48;99823.50;5088142;28;20044;-76
2024/01/14 10:46:53;;;;;;;27.05;15.27;;;;;;;7.11;49.93;99821.31;5086910;28;20051;-76
2024/01/14 10:49:24;;;;;;;27.95;15.90;;;;;;;10.05;91.52;99808.28;5092939;28;20036;-76
2024/01/14 10:51:57;;;;;;;26.63;16.08;;;;;;;15.85;64.54;99842.88;5092369;28;20059;-76
2024/01/14 10:54:44;;;;;;;51.53;27.88;;;;;;;12.63;33.91;99845.59;5091635;28;20028;-77
2024/01/14 10:57:12;;;;;;;38.10;21.95;;;;;;;10.77;37.73;99846.84;5091810;28;20117;-76
2024/01/14 10:59:42;;;;;;;29.42;18.20;;;;;;;10.38;37.37;99836.44;5091483;28;20032;-76
2024/01/14 11:02:15;;;;;;;25.38;15.52;;;;;;;9.57;39.91;99816.13;5091658;28;20031;-76
2024/01/14 11:04:43;;;;;;;39.40;21.23;;;;;;;9.19;42.03;99815.22;5090003;28;20063;-77
2024/01/14 11:07:09;;;;;;;24.55;14.63;;;;;;;9.17;37.63;99816.44;5073452;28;20088;-76
2024/01/14 11:09:34;;;;;;;67.60;29.38;;;;;;;9.31;40.85;99817.16;5058013;28;20487;-77